In Rescue
 
Open Full Screen Window  High Contrast Mode
January 24, 2020 9:13 PM EST
Present Weather: Fog
Weather Information
Wind Direction
  ---
Wind Speed
  00 kt (0 mph)
Wind Gust
  00 kt (0 mph)
Altimeter
29.79 in
Visibility
1/2 SM
Temperature
02° C
36° F
Dewpoint
01° C
34° F
Humidity
93%
Sky Condition
Overcast @ 200 ft
LIFR

METAR KHAI 250213Z AUTO 00000KT 1/2SM FG OVC002 02/01 A2979 RMK AO2 T00150009

FAA Disclaimer: The data displayed is for advisory purposes only and is not to be used for flight planning or operations.